createdAt,value
2019-04-16T00:00:11.885Z,3.60
2019-04-16T00:05:16.900Z,3.37
2019-04-16T00:10:24.677Z,2.97
2019-04-16T00:15:27.961Z,5.63
2019-04-16T00:20:36.707Z,3.80
2019-04-16T00:25:38.211Z,3.30
2019-04-16T00:30:41.577Z,4.07
2019-04-16T00:35:46.629Z,3.73
2019-04-16T00:40:49.878Z,3.80
2019-04-16T00:45:53.165Z,3.40
2019-04-16T00:50:56.635Z,3.70
2019-04-16T00:55:59.932Z,3.07
2019-04-16T01:01:03.216Z,3.80
2019-04-16T01:06:08.115Z,4.73
2019-04-16T01:11:11.680Z,3.53
2019-04-16T01:16:15.316Z,3.07
2019-04-16T01:21:18.674Z,4.40
2019-04-16T01:26:24.260Z,3.80
2019-04-16T01:31:28.624Z,4.97
2019-04-16T01:36:51.451Z,4.67
2019-04-16T01:41:54.793Z,4.10
2019-04-16T01:46:58.105Z,3.23
2019-04-16T01:52:01.427Z,2.77
2019-04-16T01:57:04.713Z,3.37
2019-04-16T02:02:08.004Z,4.13
2019-04-16T02:07:11.793Z,1.80
2019-04-16T02:12:15.112Z,3.42
2019-04-16T02:17:18.417Z,2.47
2019-04-16T02:22:21.727Z,4.60
2019-04-16T02:27:26.301Z,3.70
2019-04-16T02:32:30.222Z,4.28
2019-04-16T02:37:36.404Z,4.03
2019-04-16T02:42:38.555Z,4.67
2019-04-16T02:47:42.538Z,4.00
2019-04-16T02:52:51.068Z,3.50
2019-04-16T02:57:59.576Z,3.33
2019-04-16T03:03:17.131Z,4.10
2019-04-16T03:08:20.504Z,3.07
2019-04-16T03:13:24.051Z,3.87
2019-04-16T03:18:34.519Z,3.70
2019-04-16T03:23:37.897Z,3.30
2019-04-16T03:28:41.169Z,3.60
2019-04-16T03:33:50.484Z,4.60
2019-04-16T03:38:49.516Z,2.67
2019-04-16T03:43:52.807Z,3.73
2019-04-16T03:48:56.457Z,3.87
2019-04-16T03:53:59.745Z,4.70
2019-04-16T03:59:03.038Z,3.87
2019-04-16T04:04:06.337Z,3.57
2019-04-16T04:09:09.649Z,3.77
2019-04-16T04:14:13.295Z,3.52
2019-04-16T04:19:16.680Z,4.73
2019-04-16T04:24:19.987Z,4.10
2019-04-16T04:29:24.710Z,4.90
2019-04-16T04:34:28.235Z,4.53
2019-04-16T04:39:31.521Z,4.63
2019-04-16T04:44:36.887Z,3.23
2019-04-16T04:49:39.834Z,3.87
2019-04-16T04:54:43.119Z,4.33
2019-04-16T04:59:46.417Z,5.00
2019-04-16T05:04:54.525Z,4.53
2019-04-16T05:09:57.832Z,4.80
2019-04-16T05:15:03.865Z,4.60
2019-04-16T05:20:07.661Z,4.73
2019-04-16T05:25:11.206Z,3.33
2019-04-16T05:30:19.927Z,3.37
2019-04-16T05:35:19.697Z,3.70
2019-04-16T05:40:22.977Z,4.03
2019-04-16T05:45:26.342Z,4.77
2019-04-16T05:50:29.950Z,4.33
2019-04-16T05:55:34.959Z,4.37
2019-04-16T06:00:42.805Z,3.77
2019-04-16T06:05:46.101Z,4.27
2019-04-16T06:10:50.904Z,4.27
2019-04-16T06:16:13.214Z,5.10
2019-04-16T06:21:34.246Z,4.53
2019-04-16T06:26:47.367Z,5.07
2019-04-16T06:32:08.418Z,4.60
2019-04-16T06:37:20.321Z,4.40
2019-04-16T06:42:25.942Z,4.03
2019-04-16T06:47:33.316Z,4.67
2019-04-16T06:52:54.417Z,3.10
2019-04-16T06:57:59.379Z,5.43
2019-04-16T07:03:13.585Z,4.43
2019-04-16T07:08:37.528Z,6.50
2019-04-16T07:13:32.598Z,5.37
2019-04-16T07:18:38.732Z,5.00
2019-04-16T07:23:40.927Z,4.40
2019-04-16T07:29:02.082Z,5.87
2019-04-16T07:34:13.010Z,4.67
2019-04-16T07:39:36.947Z,6.17
2019-04-16T07:44:57.165Z,5.23
2019-04-16T07:50:02.474Z,5.27
2019-04-16T07:55:23.668Z,5.20
2019-04-16T08:00:27.995Z,5.10
2019-04-16T08:05:31.294Z,5.00
2019-04-16T08:10:34.734Z,6.23
2019-04-16T08:15:38.026Z,4.87
2019-04-16T08:20:41.324Z,5.80
2019-04-16T08:25:44.930Z,6.60
2019-04-16T08:30:48.264Z,6.17
2019-04-16T08:35:51.613Z,6.30
2019-04-16T08:40:54.920Z,6.03
2019-04-16T08:45:58.232Z,6.17
2019-04-16T08:51:04.276Z,6.43
2019-04-16T08:56:06.547Z,6.97
2019-04-16T09:01:11.518Z,8.13
2019-04-16T09:06:14.802Z,5.30
2019-04-16T09:11:23.423Z,6.30
2019-04-16T09:16:23.148Z,5.27
2019-04-16T09:21:28.051Z,6.27
2019-04-16T09:26:33.177Z,5.63
2019-04-16T09:31:38.225Z,6.80
2019-04-16T09:36:55.489Z,5.33
2019-04-16T09:41:58.749Z,5.80
2019-04-16T09:47:05.004Z,5.17
2019-04-16T09:52:07.087Z,5.47
2019-04-16T09:57:10.406Z,6.30
2019-04-16T10:02:18.061Z,4.63
2019-04-16T10:07:21.490Z,5.77
2019-04-16T10:12:25.076Z,6.20
2019-04-16T10:17:28.329Z,5.28
2019-04-16T10:22:31.644Z,5.37
2019-04-16T10:27:36.617Z,5.10
2019-04-16T10:32:39.898Z,5.07
2019-04-16T10:37:43.208Z,6.33
2019-04-16T10:42:50.841Z,4.97
2019-04-16T10:47:55.738Z,5.67
2019-04-16T10:53:06.315Z,5.17
2019-04-16T10:58:27.529Z,5.83
2019-04-16T11:03:48.602Z,3.07
2019-04-16T11:08:52.028Z,5.73
2019-04-16T11:14:00.184Z,5.80
2019-04-16T11:19:00.494Z,5.07
2019-04-16T11:24:03.871Z,5.93
2019-04-16T11:29:07.165Z,4.83
2019-04-16T11:34:12.102Z,6.60
2019-04-16T11:39:15.448Z,6.40
2019-04-16T11:44:18.774Z,5.60
2019-04-16T11:49:22.062Z,6.13
2019-04-16T11:54:25.474Z,6.87
2019-04-16T11:59:28.842Z,5.53
2019-04-16T12:04:33.808Z,6.03
2019-04-16T12:09:38.784Z,6.10
2019-04-16T12:14:43.808Z,6.07
2019-04-16T12:19:48.849Z,5.50
2019-04-16T12:25:00.029Z,4.97
2019-04-16T12:30:13.721Z,6.10
2019-04-16T12:35:36.842Z,6.50
2019-04-16T12:40:58.259Z,5.57
2019-04-16T12:46:05.957Z,5.37
2019-04-16T12:51:10.894Z,5.20
2019-04-16T12:56:18.514Z,6.30
2019-04-16T13:01:29.406Z,5.50
2019-04-16T13:06:37.111Z,6.53
2019-04-16T13:11:47.746Z,5.97
2019-04-16T13:17:08.809Z,5.53
2019-04-16T13:22:19.651Z,5.53
2019-04-16T13:27:30.616Z,5.67
2019-04-16T13:32:33.931Z,6.03
2019-04-16T13:37:38.027Z,5.70
2019-04-16T13:42:41.409Z,6.57
2019-04-16T13:47:54.547Z,5.03
2019-04-16T13:52:55.969Z,5.03
2019-04-16T13:58:03.519Z,5.87
2019-04-16T14:03:11.173Z,5.20
2019-04-16T14:08:14.476Z,5.57
2019-04-16T14:13:17.770Z,5.77
2019-04-16T14:18:21.903Z,5.63
2019-04-16T14:23:25.356Z,6.33
2019-04-16T14:28:31.597Z,6.40
2019-04-16T14:33:35.446Z,6.33
2019-04-16T14:38:43.276Z,5.93
2019-04-16T14:43:48.227Z,5.73
2019-04-16T14:48:51.532Z,5.77
2019-04-16T14:54:12.306Z,5.73
2019-04-16T14:59:33.605Z,5.57
2019-04-16T15:04:30.237Z,5.50
2019-04-16T15:09:43.954Z,6.50
2019-04-16T15:14:48.887Z,5.97
2019-04-16T15:19:53.834Z,6.10
2019-04-16T15:25:10.801Z,5.53
2019-04-16T15:30:18.343Z,5.28
2019-04-16T15:35:29.294Z,6.43
2019-04-16T15:40:39.388Z,4.80
2019-04-16T15:45:40.959Z,5.43
2019-04-16T15:50:54.929Z,6.07
2019-04-16T15:55:59.914Z,6.03
2019-04-16T16:01:07.967Z,6.10
2019-04-16T16:06:12.941Z,5.53
2019-04-16T16:11:20.311Z,6.37
2019-04-16T16:16:23.616Z,5.67
2019-04-16T16:21:26.917Z,5.30
2019-04-16T16:26:30.225Z,4.97
2019-04-16T16:31:35.680Z,4.87
2019-04-16T16:36:40.700Z,4.97
2019-04-16T16:41:46.477Z,5.07
2019-04-16T16:46:57.998Z,5.17
2019-04-16T16:52:21.429Z,4.17
2019-04-16T16:57:35.326Z,4.60
2019-04-16T17:02:40.266Z,4.83
2019-04-16T17:07:43.566Z,4.83
2019-04-16T17:12:46.871Z,4.77
2019-04-16T17:17:50.193Z,4.90
2019-04-16T17:22:53.779Z,4.53
2019-04-16T17:27:57.073Z,4.30
2019-04-16T17:33:00.445Z,4.50
2019-04-16T17:38:04.418Z,3.73
2019-04-16T17:43:18.143Z,5.00
2019-04-16T17:48:41.485Z,4.40
2019-04-16T17:53:46.431Z,4.07
2019-04-16T17:58:53.849Z,4.87
2019-04-16T18:04:02.151Z,4.17
2019-04-16T18:09:18.059Z,4.03
2019-04-16T18:14:41.390Z,4.53
2019-04-16T18:20:02.553Z,3.93
2019-04-16T18:25:23.875Z,4.30
2019-04-16T18:30:31.800Z,3.97
2019-04-16T18:35:52.781Z,4.33
2019-04-16T18:41:09.610Z,4.57
2019-04-16T18:46:23.300Z,5.23
2019-04-16T18:51:26.742Z,4.85
2019-04-16T18:56:30.256Z,4.60
2019-04-16T19:01:35.226Z,4.00
2019-04-16T19:06:38.559Z,4.37
2019-04-16T19:11:41.860Z,4.03
2019-04-16T19:16:45.254Z,4.40
2019-04-16T19:21:52.252Z,4.77
2019-04-16T19:26:54.480Z,5.10
2019-04-16T19:31:57.784Z,4.17
2019-04-16T19:37:01.384Z,3.93
2019-04-16T19:42:04.887Z,3.62
2019-04-16T19:47:08.201Z,3.67
2019-04-16T19:52:14.289Z,3.67
2019-04-16T19:57:16.569Z,4.20
2019-04-16T20:02:19.880Z,5.90
2019-04-16T20:07:23.185Z,5.00
2019-04-16T20:12:28.050Z,5.03
2019-04-16T20:17:31.595Z,4.23
2019-04-16T20:22:34.927Z,3.87
2019-04-16T20:27:39.795Z,4.10
2019-04-16T20:32:43.336Z,3.10
2019-04-16T20:37:55.155Z,3.50
2019-04-16T20:42:58.994Z,3.10
2019-04-16T20:48:02.346Z,3.63
2019-04-16T20:53:11.278Z,3.70
2019-04-16T20:58:15.011Z,4.67
2019-04-16T21:03:22.275Z,3.37
2019-04-16T21:08:25.048Z,3.60
2019-04-16T21:13:28.588Z,3.40
2019-04-16T21:18:32.947Z,4.30
2019-04-16T21:23:36.246Z,3.60
2019-04-16T21:28:41.183Z,3.30
2019-04-16T21:33:55.035Z,3.27
2019-04-16T21:39:08.968Z,2.90
2019-04-16T21:44:13.301Z,3.60
2019-04-16T21:49:16.865Z,4.07
2019-04-16T21:54:20.213Z,3.73
2019-04-16T21:59:23.544Z,3.53
2019-04-16T22:04:26.907Z,3.77
2019-04-16T22:09:30.199Z,3.27
2019-04-16T22:14:33.506Z,3.43
2019-04-16T22:19:36.837Z,4.60
2019-04-16T22:24:40.183Z,3.23
2019-04-16T22:29:47.317Z,3.63
2019-04-16T22:34:48.492Z,3.63
2019-04-16T22:39:59.173Z,4.67
2019-04-16T22:45:20.630Z,4.50
2019-04-16T22:50:23.940Z,3.77
2019-04-16T22:55:27.245Z,4.83
2019-04-16T23:00:32.168Z,3.60
2019-04-16T23:05:35.459Z,3.60
2019-04-16T23:10:38.818Z,4.03
2019-04-16T23:15:42.786Z,3.60
2019-04-16T23:20:46.078Z,3.67
2019-04-16T23:25:49.419Z,3.47
2019-04-16T23:30:52.699Z,3.87
2019-04-16T23:35:55.994Z,4.10
2019-04-16T23:40:59.281Z,2.90
2019-04-16T23:46:20.064Z,3.53
2019-04-16T23:51:28.685Z,4.00
2019-04-16T23:56:40.731Z,3.53
